Main page
METAR-TAF:

METAR-TAF

Airports :

Samedan Airport

St. Moritz, Switzerland

latitude: 46-32-03N, longitude: 9-53-03E, elevation: 1707 m

Current weather observation

The report was made 26 minutes ago, at 07:20 UTC
Wind 2 kt from variable directions
Temperature 4°C
Humidity 75%
Pressure 1030 hPa
Visibility: 8000 m
Scattered clouds at a height of 2200 ft
Broken clouds at a height of 4000 ft

METAR: LSZS 190720Z VRB02KT 8000 SCT022 BKN040 04/00 Q1030 RMK D

Time: 09:46 (07:46 UTC)

Forecast

The report was made 2 hours and 21 minutes ago, at 05:25 UTC
Forecast valid from 19 at 06 UTC to 19 at 15 UTC
Wind 3 kt from variable directions
Visibility 10 km or more
Few clouds at a height of 2500 ft
Scattered clouds at a height of 4500 ft
Broken clouds at a height of 5000 ft
Becoming
from 19 at 12 UTC to 19 at 15 UTC
Visibility 10 km or more
no clouds below 1500 m and no cumulonimbus

TAF: LSZS 190525Z 1906/1915 VRB03KT 9999 FEW025 SCT045 BKN050 TX10/1915Z BECMG 1912/1915 CAVOK

Weather observations and forecasts of more than 4000 airports (METAR and TAF reports).

The available stations are represented by yellow and red dots on the map.

Hover mouse over dot to see the name of the station.

Then click to see weather observations and forecasts.

To change the map : click on the green buttons with a black cross to zoom in, on the green button with a dash to zoom out, or on the green arrows for adjacent maps.


METAR-TAF: